Time;durP1;ratioP1;P1;durP2;ratioP2;P2;SDS_P1;SDS_P2;PMS_P1;PMS_P2;Temp;Humidity;BMP_temperature;BMP_pressure;BME280_temperature;BME280_humidity;BME280_pressure;Samples;Min_cycle;Max_cycle;Signal;HPM_P1;HPM_P2
2022/06/28 00:01:15;;;;;;;7.97;3.42;;;;;;;16.08;100.00;99218.53;5009720;28;20414;-68
2022/06/28 00:03:42;;;;;;;4.75;3.10;;;;;;;16.11;100.00;99217.25;5009970;28;20127;-68
2022/06/28 00:06:07;;;;;;;5.45;3.05;;;;;;;15.99;100.00;99218.03;5006375;28;20029;-68
2022/06/28 00:08:33;;;;;;;5.88;2.80;;;;;;;16.05;100.00;99218.19;5008698;28;20022;-68
2022/06/28 00:10:58;;;;;;;5.65;2.60;;;;;;;15.94;100.00;99220.59;5007760;28;20030;-68
2022/06/28 00:13:23;;;;;;;8.10;3.10;;;;;;;15.90;100.00;99224.00;5009238;28;20021;-68
2022/06/28 00:16:07;;;;;;;2.83;2.53;;;;;;;15.75;100.00;99232.59;5005221;28;20025;-68
2022/06/28 00:18:37;;;;;;;8.55;3.20;;;;;;;15.66;100.00;99229.28;5006965;28;20514;-68
2022/06/28 00:21:06;;;;;;;6.43;2.88;;;;;;;15.61;100.00;99236.47;5014332;28;20033;-68
2022/06/28 00:23:32;;;;;;;7.10;3.08;;;;;;;15.49;100.00;99237.22;5012756;28;20018;-68
2022/06/28 00:25:57;;;;;;;3.50;2.85;;;;;;;15.42;100.00;99236.44;5012538;28;20068;-68
2022/06/28 00:28:23;;;;;;;4.72;2.72;;;;;;;15.40;100.00;99241.28;5012241;28;20057;-68
2022/06/28 00:30:48;;;;;;;5.25;3.25;;;;;;;15.48;100.00;99246.47;5010775;28;20116;-68
2022/06/28 00:33:14;;;;;;;6.32;3.30;;;;;;;15.39;100.00;99247.81;5012806;28;20072;-68
2022/06/28 00:35:39;;;;;;;12.23;3.28;;;;;;;15.30;100.00;99246.41;5010843;28;20034;-68
2022/06/28 00:38:06;;;;;;;5.97;3.20;;;;;;;15.24;100.00;99233.69;5013892;28;20033;-68
2022/06/28 00:40:33;;;;;;;8.15;3.20;;;;;;;15.26;100.00;99250.66;5010892;28;20119;-68
2022/06/28 00:42:58;;;;;;;6.03;3.00;;;;;;;15.03;100.00;99227.56;5013473;28;20026;-68
2022/06/28 00:45:25;;;;;;;5.35;3.50;;;;;;;15.04;100.00;99242.03;5012500;28;20479;-68
2022/06/28 00:47:51;;;;;;;9.65;3.42;;;;;;;15.15;100.00;99259.56;5012378;28;20022;-68
2022/06/28 00:50:17;;;;;;;9.30;3.90;;;;;;;15.22;100.00;99260.31;5011601;28;20028;-68
2022/06/28 00:53:13;;;;;;;9.00;3.70;;;;;;;15.35;100.00;99252.03;5011601;28;20022;-68
2022/06/28 00:55:40;;;;;;;8.57;3.38;;;;;;;15.26;100.00;99256.09;4994098;28;20058;-68
2022/06/28 00:58:06;;;;;;;10.07;3.80;;;;;;;15.16;100.00;99233.97;5007977;28;20101;-68
2022/06/28 01:00:35;;;;;;;8.32;3.22;;;;;;;15.10;100.00;99241.97;5011087;28;20153;-68
2022/06/28 01:03:00;;;;;;;;;;;;;;;15.09;100.00;99240.31;5012852;28;20056;-69
2022/06/28 01:05:26;;;;;;;4.05;2.40;;;;;;;15.04;100.00;99247.47;5009267;28;20375;-68
2022/06/28 01:07:51;;;;;;;5.57;2.65;;;;;;;14.98;100.00;99241.00;5011605;28;20038;-68
2022/06/28 01:10:17;;;;;;;11.90;2.80;;;;;;;14.97;100.00;99247.53;5012575;28;20018;-68
2022/06/28 01:12:42;;;;;;;5.85;2.40;;;;;;;15.01;100.00;99243.31;5010466;28;20395;-68
2022/06/28 01:15:08;;;;;;;4.35;2.50;;;;;;;14.97;100.00;99239.34;5012970;28;20112;-68
2022/06/28 01:17:33;;;;;;;4.20;2.65;;;;;;;14.98;100.00;99232.81;5012338;28;20037;-68
2022/06/28 01:19:58;;;;;;;3.55;2.60;;;;;;;15.02;100.00;99239.50;5012156;28;20030;-67
2022/06/28 01:22:27;;;;;;;6.07;2.70;;;;;;;14.98;100.00;99248.34;5013506;28;20022;-68
2022/06/28 01:24:53;;;;;;;8.07;2.58;;;;;;;14.92;100.00;99241.91;5010770;28;20030;-67
2022/06/28 01:27:19;;;;;;;7.05;2.67;;;;;;;15.02;100.00;99244.97;5007611;28;20937;-68
2022/06/28 01:29:45;;;;;;;7.60;2.78;;;;;;;14.95;100.00;99241.44;5008750;28;20049;-68
2022/06/28 01:32:12;;;;;;;6.00;2.85;;;;;;;15.01;100.00;99254.22;5013175;28;20022;-68
2022/06/28 01:34:38;;;;;;;5.80;2.92;;;;;;;15.02;100.00;99255.88;5009136;28;20029;-68
2022/06/28 01:37:03;;;;;;;6.88;2.83;;;;;;;15.03;100.00;99256.69;5011520;28;20035;-68
2022/06/28 01:39:28;;;;;;;5.10;3.35;;;;;;;15.06;100.00;99258.97;5009804;28;20037;-68
2022/06/28 01:41:54;;;;;;;8.73;3.55;;;;;;;15.08;100.00;99265.88;5012574;28;20049;-68
2022/06/28 01:44:20;;;;;;;3.72;3.05;;;;;;;15.07;100.00;99266.13;5009902;28;20056;-67
2022/06/28 01:46:45;;;;;;;9.40;3.45;;;;;;;14.92;100.00;99235.63;5007830;28;20802;-68
2022/06/28 01:49:11;;;;;;;4.15;2.97;;;;;;;15.08;100.00;99256.88;5005788;28;20021;-68
2022/06/28 01:51:37;;;;;;;6.03;3.38;;;;;;;14.96;100.00;99229.50;5012486;28;20014;-68
2022/06/28 01:54:02;;;;;;;7.97;3.58;;;;;;;15.12;100.00;99245.31;5009959;28;20037;-68
2022/06/28 01:56:27;;;;;;;6.05;3.30;;;;;;;15.04;100.00;99218.34;5010626;28;20033;-68
2022/06/28 01:58:54;;;;;;;6.22;3.40;;;;;;;15.19;100.00;99239.78;5012082;28;20033;-68
2022/06/28 02:01:20;;;;;;;9.55;2.92;;;;;;;15.23;100.00;99249.19;5007057;28;20390;-68
2022/06/28 02:03:45;;;;;;;4.00;3.50;;;;;;;15.20;100.00;99259.72;5009141;28;20026;-68
2022/06/28 02:06:10;;;;;;;4.00;3.08;;;;;;;15.13;100.00;99257.88;5008664;28;20341;-68
2022/06/28 02:08:36;;;;;;;10.98;3.42;;;;;;;15.20;100.00;99248.81;5011557;28;20033;-68
2022/06/28 02:11:03;;;;;;;8.23;3.15;;;;;;;15.06;100.00;99259.84;5010809;28;20092;-68
2022/06/28 02:13:29;;;;;;;14.65;3.15;;;;;;;14.98;100.00;99254.63;5010293;28;20029;-68
2022/06/28 02:15:55;;;;;;;6.40;3.33;;;;;;;14.89;100.00;99256.78;5008637;28;20395;-68
2022/06/28 02:18:20;;;;;;;9.32;4.10;;;;;;;14.86;100.00;99259.97;5010744;28;20028;-68
2022/06/28 02:20:45;;;;;;;5.20;3.35;;;;;;;14.82;100.00;99266.06;5011161;28;20017;-68
2022/06/28 02:23:11;;;;;;;8.90;3.63;;;;;;;14.84;100.00;99274.84;5011554;28;20038;-68
2022/06/28 02:25:36;;;;;;;5.68;3.53;;;;;;;14.86;100.00;99275.47;5010665;28;22178;-68
2022/06/28 02:28:01;;;;;;;5.75;3.28;;;;;;;14.86;100.00;99272.75;5006254;28;20085;-68
2022/06/28 02:30:27;;;;;;;10.63;3.58;;;;;;;14.84;100.00;99264.78;5011036;28;20018;-68
2022/06/28 02:32:52;;;;;;;9.82;3.35;;;;;;;14.76;100.00;99256.06;5007159;28;20029;-68
2022/06/28 02:40:46;;;;;;;10.05;3.42;;;;;;;15.12;100.00;99272.56;5007676;28;20032;-68
2022/06/28 02:43:13;;;;;;;9.10;3.75;;;;;;;15.17;100.00;99276.50;5011440;28;20025;-68
2022/06/28 02:45:39;;;;;;;8.68;3.40;;;;;;;15.07;100.00;99277.84;5004699;28;20206;-68
2022/06/28 02:48:05;;;;;;;6.65;3.15;;;;;;;15.12;100.00;99282.63;5009150;28;20025;-68
2022/06/28 02:50:31;;;;;;;6.85;2.83;;;;;;;15.10;100.00;99282.84;5011065;28;20036;-68
2022/06/28 02:52:57;;;;;;;13.35;3.85;;;;;;;15.05;100.00;99282.66;5011539;28;20491;-68
2022/06/28 02:55:22;;;;;;;8.25;3.50;;;;;;;15.12;100.00;99282.63;5007245;28;20410;-68
2022/06/28 02:57:48;;;;;;;6.45;3.10;;;;;;;14.98;100.00;99286.50;5008237;28;20065;-68
2022/06/28 03:00:15;;;;;;;5.50;2.88;;;;;;;14.83;100.00;99287.66;5008686;28;20489;-68
2022/06/28 03:02:43;;;;;;;19.30;3.15;;;;;;;14.71;100.00;99297.56;5008062;28;20112;-68
2022/06/28 03:05:10;;;;;;;10.77;3.28;;;;;;;14.76;100.00;99303.19;5009269;28;20030;-68
2022/06/28 03:07:36;;;;;;;10.52;3.78;;;;;;;14.76;100.00;99305.91;5006485;28;20092;-68
2022/06/28 03:10:03;;;;;;;9.10;3.25;;;;;;;14.82;100.00;99309.66;5011142;28;20300;-68
2022/06/28 03:12:29;;;;;;;11.57;3.50;;;;;;;14.83;100.00;99297.72;5011516;28;20422;-68
2022/06/28 03:14:54;;;;;;;12.82;3.72;;;;;;;14.87;100.00;99288.88;5006243;28;20026;-68
2022/06/28 03:17:19;;;;;;;9.32;4.00;;;;;;;15.04;100.00;99297.38;5007509;28;20403;-68
2022/06/28 03:19:45;;;;;;;7.63;3.80;;;;;;;15.22;100.00;99293.03;5011331;28;20508;-68
2022/06/28 03:22:10;;;;;;;8.02;3.60;;;;;;;15.22;100.00;99287.56;5006282;28;20404;-68
2022/06/28 03:24:36;;;;;;;8.57;3.20;;;;;;;14.97;100.00;99263.03;5007823;28;20041;-68
2022/06/28 03:27:01;;;;;;;5.70;3.25;;;;;;;15.06;100.00;99278.06;5004898;28;20049;-68
2022/06/28 03:29:27;;;;;;;3.42;2.78;;;;;;;15.06;100.00;99281.63;5006440;28;20474;-68
2022/06/28 03:31:52;;;;;;;8.20;3.15;;;;;;;14.84;100.00;99272.13;5011780;28;20033;-68
2022/06/28 03:34:19;;;;;;;11.45;3.58;;;;;;;14.78;100.00;99281.19;5010292;28;20034;-67
2022/06/28 03:36:45;;;;;;;14.77;3.50;;;;;;;14.65;100.00;99291.09;5007847;28;20590;-67
2022/06/28 03:39:10;;;;;;;8.35;3.35;;;;;;;14.69;100.00;99297.75;5010445;28;20030;-67
2022/06/28 03:41:35;;;;;;;6.63;3.45;;;;;;;14.65;100.00;99295.72;5011371;28;20025;-67
2022/06/28 03:44:00;;;;;;;8.30;3.15;;;;;;;14.70;100.00;99309.53;5007844;28;20855;-67
2022/06/28 03:46:26;;;;;;;7.05;3.00;;;;;;;14.64;100.00;99308.47;5005710;28;20109;-68
2022/06/28 03:48:51;;;;;;;8.85;3.70;;;;;;;14.65;100.00;99304.72;5009196;28;20029;-68
2022/06/28 03:51:17;;;;;;;7.03;2.75;;;;;;;14.66;100.00;99306.38;5021241;28;20037;-68
2022/06/28 03:53:42;;;;;;;5.55;2.88;;;;;;;14.64;100.00;99313.94;5019097;28;20033;-68
2022/06/28 03:56:08;;;;;;;9.43;3.10;;;;;;;14.58;100.00;99303.06;5012622;28;20120;-68
2022/06/28 03:58:33;;;;;;;11.40;3.40;;;;;;;14.68;100.00;99320.63;5013101;28;20105;-68
2022/06/28 04:00:59;;;;;;;14.30;3.15;;;;;;;14.74;100.00;99323.53;5014283;28;20037;-69
2022/06/28 04:03:25;;;;;;;12.27;3.47;;;;;;;14.81;100.00;99319.72;5011396;28;20026;-64
2022/06/28 04:05:51;;;;;;;10.30;3.22;;;;;;;14.81;100.00;99308.00;5003688;28;20293;-72
2022/06/28 04:08:16;;;;;;;7.47;3.10;;;;;;;14.90;100.00;99303.94;5010667;28;20029;-72
2022/06/28 04:10:42;;;;;;;9.88;3.10;;;;;;;15.06;100.00;99316.19;5009792;28;20471;-70
2022/06/28 04:13:07;;;;;;;7.47;2.60;;;;;;;15.00;100.00;99296.13;5011176;28;20033;-70
2022/06/28 04:15:34;;;;;;;4.30;2.80;;;;;;;15.21;100.00;99307.72;5012831;28;20475;-73
2022/06/28 04:18:00;;;;;;;7.82;2.97;;;;;;;15.24;100.00;99308.09;5008254;28;22626;-70
2022/06/28 04:20:25;;;;;;;14.75;3.22;;;;;;;15.20;100.00;99308.78;5013787;28;20022;-70
2022/06/28 04:22:51;;;;;;;11.63;3.38;;;;;;;15.31;100.00;99316.25;5012779;28;20100;-70
2022/06/28 04:25:16;;;;;;;12.10;3.25;;;;;;;15.30;100.00;99318.13;5012823;28;20045;-71
2022/06/28 04:27:41;;;;;;;12.15;3.47;;;;;;;15.43;100.00;99321.78;5012339;28;20037;-70
2022/06/28 04:30:07;;;;;;;7.32;2.50;;;;;;;15.56;100.00;99322.53;5013968;28;20017;-67
2022/06/28 04:32:33;;;;;;;6.40;2.75;;;;;;;15.81;100.00;99321.72;5011642;28;20033;-68
2022/06/28 04:34:58;;;;;;;6.32;2.80;;;;;;;15.73;100.00;99313.81;5012801;28;20032;-70
2022/06/28 04:37:23;;;;;;;4.10;2.53;;;;;;;15.81;100.00;99315.44;5015688;28;20028;-69
2022/06/28 04:39:49;;;;;;;9.45;2.75;;;;;;;15.80;100.00;99311.88;5014735;28;20388;-68
2022/06/28 04:42:14;;;;;;;6.55;2.70;;;;;;;15.99;100.00;99316.28;5022481;28;20092;-72
2022/06/28 04:44:41;;;;;;;4.82;2.47;;;;;;;15.92;100.00;99284.66;5021252;28;20033;-73
2022/06/28 04:47:07;;;;;;;3.28;2.20;;;;;;;15.96;100.00;99289.44;5015769;28;20030;-70
2022/06/28 04:49:33;;;;;;;7.78;2.78;;;;;;;16.30;100.00;99306.28;5014742;28;20029;-67
2022/06/28 04:51:58;;;;;;;5.05;2.60;;;;;;;16.41;100.00;99307.41;5012703;28;20025;-71
2022/06/28 04:54:23;;;;;;;13.30;3.80;;;;;;;16.24;100.00;99281.78;5011352;28;20018;-70
2022/06/28 04:56:48;;;;;;;7.13;3.60;;;;;;;16.38;100.00;99292.31;5011275;28;20025;-70
2022/06/28 04:59:14;;;;;;;7.93;3.33;;;;;;;16.50;100.00;99305.19;5007493;28;20025;-71
2022/06/28 05:01:39;;;;;;;10.02;3.65;;;;;;;16.57;100.00;99309.50;5012470;28;20500;-71
2022/06/28 05:04:04;;;;;;;5.28;4.10;;;;;;;16.65;100.00;99305.63;5011822;28;20036;-68
2022/06/28 05:06:30;;;;;;;6.72;3.80;;;;;;;17.21;100.00;99320.00;5012683;28;20032;-68
2022/06/28 05:08:56;;;;;;;8.40;4.13;;;;;;;17.39;100.00;99319.09;5011935;28;20026;-68
2022/06/28 05:11:21;;;;;;;8.23;4.40;;;;;;;17.51;100.00;99320.78;5012543;28;20022;-68
2022/06/28 05:13:47;;;;;;;7.60;4.07;;;;;;;17.61;100.00;99324.84;5011778;28;20486;-68
2022/06/28 05:16:12;;;;;;;5.07;3.13;;;;;;;17.59;100.00;99288.66;5012776;28;20080;-61
2022/06/28 05:18:37;;;;;;;6.15;3.28;;;;;;;17.89;100.00;99314.06;5008098;28;20079;-73
2022/06/28 05:21:03;;;;;;;8.20;3.60;;;;;;;17.90;100.00;99303.94;5013600;28;20013;-74
2022/06/28 05:23:29;;;;;;;6.38;3.58;;;;;;;17.99;100.00;99294.28;5033084;28;20018;-74
2022/06/28 05:25:54;;;;;;;8.27;3.97;;;;;;;18.13;100.00;99295.69;5008475;28;20022;-72
2022/06/28 05:28:20;;;;;;;7.75;3.75;;;;;;;18.39;100.00;99308.03;5012534;28;20052;-72
2022/06/28 05:30:45;;;;;;;5.70;2.90;;;;;;;18.87;100.00;99302.41;5012820;28;20025;-72
2022/06/28 05:33:10;;;;;;;5.68;3.15;;;;;;;18.99;100.00;99301.28;5011426;28;20029;-72
2022/06/28 05:35:36;;;;;;;3.60;3.00;;;;;;;19.12;100.00;99291.06;5008554;28;20026;-72
2022/06/28 05:38:02;;;;;;;5.00;3.60;;;;;;;19.07;100.00;99300.03;5011446;28;20042;-70
2022/06/28 05:40:28;;;;;;;7.10;3.13;;;;;;;19.10;100.00;99295.97;5011276;28;20112;-71
2022/06/28 05:42:53;;;;;;;5.15;2.58;;;;;;;19.25;100.00;99286.09;5011411;28;20029;-73
2022/06/28 05:45:18;;;;;;;20.73;3.60;;;;;;;19.20;100.00;99304.38;5010401;28;20019;-73
2022/06/28 05:47:45;;;;;;;4.65;3.00;;;;;;;19.40;100.00;99307.47;5008317;28;20044;-73
2022/06/28 05:50:11;;;;;;;4.72;2.67;;;;;;;19.44;100.00;99297.69;5012911;28;20024;-73
2022/06/28 05:52:36;;;;;;;3.63;2.38;;;;;;;19.58;100.00;99275.38;5012281;28;20038;-74
2022/06/28 05:55:01;;;;;;;3.92;1.85;;;;;;;20.12;100.00;99301.19;5004499;28;20034;-75
2022/06/28 05:57:27;;;;;;;3.50;1.95;;;;;;;20.30;100.00;99288.22;5013705;28;20054;-73
2022/06/28 05:59:52;;;;;;;2.90;2.03;;;;;;;20.75;100.00;99311.88;5012769;28;20030;-75
2022/06/28 06:02:17;;;;;;;3.55;1.80;;;;;;;20.77;100.00;99305.03;5011088;28;20061;-73
2022/06/28 06:04:42;;;;;;;2.95;1.80;;;;;;;20.50;100.00;99312.41;5007016;28;20506;-74
2022/06/28 06:07:08;;;;;;;3.67;1.90;;;;;;;20.44;100.00;99311.50;5008525;28;20030;-73
2022/06/28 06:09:33;;;;;;;4.88;2.22;;;;;;;20.35;100.00;99294.63;5009441;28;20045;-69
2022/06/28 06:11:59;;;;;;;3.28;2.15;;;;;;;20.49;100.00;99303.31;5011890;28;20022;-72
2022/06/28 06:14:24;;;;;;;4.32;2.35;;;;;;;20.25;100.00;99290.91;5010266;28;20030;-76
2022/06/28 06:16:50;;;;;;;3.63;1.90;;;;;;;20.71;100.00;99295.09;5008890;28;20446;-74
2022/06/28 06:19:16;;;;;;;4.93;2.17;;;;;;;20.95;100.00;99301.13;5010213;28;20108;-70
2022/06/28 06:21:42;;;;;;;2.03;1.83;;;;;;;21.07;100.00;99289.97;5011664;28;20472;-65
2022/06/28 06:24:07;;;;;;;6.45;1.60;;;;;;;21.29;100.00;99300.06;5006113;28;20084;-62
2022/06/28 06:26:33;;;;;;;2.25;1.80;;;;;;;21.27;100.00;99272.78;5011704;28;20100;-69
2022/06/28 06:28:58;;;;;;;2.67;1.80;;;;;;;21.50;100.00;99292.84;5007234;28;20037;-72
2022/06/28 06:31:24;;;;;;;4.35;2.45;;;;;;;21.51;100.00;99294.50;5010389;28;20010;-61
2022/06/28 06:33:49;;;;;;;4.13;2.00;;;;;;;21.42;100.00;99294.97;5009427;28;20117;-61
2022/06/28 06:36:14;;;;;;;5.53;1.90;;;;;;;21.72;100.00;99292.72;5005452;28;20042;-61
2022/06/28 06:38:40;;;;;;;3.38;1.70;;;;;;;21.54;94.22;99263.72;5005704;28;20029;-60
2022/06/28 06:41:05;;;;;;;2.20;1.65;;;;;;;21.74;100.00;99279.53;5005311;28;20032;-61
2022/06/28 06:43:30;;;;;;;3.42;1.50;;;;;;;21.76;95.96;99280.09;5000575;28;20432;-70
2022/06/28 06:45:56;;;;;;;3.05;1.20;;;;;;;22.16;96.61;99282.25;5004845;28;20603;-72
2022/06/28 06:48:22;;;;;;;1.70;1.13;;;;;;;21.83;89.83;99280.72;5012735;28;20471;-71
2022/06/28 06:50:47;;;;;;;1.48;1.10;;;;;;;22.41;85.86;99270.56;5010088;28;20028;-70
2022/06/28 06:53:12;;;;;;;1.63;1.10;;;;;;;22.78;86.21;99283.38;5010124;28;20124;-71
2022/06/28 06:55:38;;;;;;;3.42;0.90;;;;;;;23.36;77.83;99261.13;5008726;28;20044;-73
2022/06/28 06:58:03;;;;;;;4.20;1.15;;;;;;;23.47;74.50;99270.22;5013596;28;20022;-71
2022/06/28 07:00:29;;;;;;;1.63;1.10;;;;;;;24.18;70.07;99288.66;5013124;28;20041;-71
2022/06/28 07:02:54;;;;;;;2.42;1.05;;;;;;;24.70;67.20;99279.88;5007937;28;20030;-74
2022/06/28 07:05:20;;;;;;;4.15;1.10;;;;;;;24.72;64.37;99251.94;5009645;28;20021;-71
2022/06/28 07:07:45;;;;;;;3.13;1.05;;;;;;;25.78;63.25;99246.69;5008883;28;20084;-68
2022/06/28 07:10:11;;;;;;;0.95;0.80;;;;;;;27.35;55.06;99251.63;5011644;28;20538;-68
2022/06/28 07:12:36;;;;;;;1.95;0.75;;;;;;;28.66;49.81;99248.59;5008714;28;20396;-69
2022/06/28 07:15:02;;;;;;;3.33;0.65;;;;;;;30.13;47.94;99244.09;5009317;28;20066;-63
2022/06/28 07:17:27;;;;;;;1.58;0.57;;;;;;;32.61;41.72;99241.28;5010875;28;20017;-64
2022/06/28 07:19:52;;;;;;;0.98;0.65;;;;;;;32.37;40.33;99225.91;5008403;28;20451;-64
2022/06/28 07:22:18;;;;;;;0.73;0.50;;;;;;;32.15;39.93;99209.38;5001018;28;20128;-63
2022/06/28 07:24:43;;;;;;;0.75;0.40;;;;;;;32.57;39.42;99199.13;5005620;28;20088;-68
2022/06/28 07:27:08;;;;;;;0.57;0.43;;;;;;;31.87;41.04;99188.25;5011335;28;20022;-71
2022/06/28 07:29:34;;;;;;;2.35;0.57;;;;;;;29.63;44.43;99184.91;5013818;28;20811;-71
2022/06/28 07:31:59;;;;;;;1.20;0.50;;;;;;;27.45;47.87;99160.56;5010726;28;20101;-71
2022/06/28 07:34:24;;;;;;;0.52;0.38;;;;;;;25.84;53.70;99166.25;5013023;28;20022;-71
2022/06/28 07:36:50;;;;;;;0.95;0.50;;;;;;;25.13;57.14;99180.50;5013413;28;20029;-71
2022/06/28 07:39:15;;;;;;;1.42;0.63;;;;;;;24.44;59.41;99174.09;5012234;28;20069;-70
2022/06/28 07:41:40;;;;;;;0.98;0.40;;;;;;;24.61;61.35;99181.19;5015154;28;20068;-71
2022/06/28 07:44:06;;;;;;;0.88;0.50;;;;;;;24.00;64.72;99187.84;5011032;28;20022;-68
2022/06/28 07:46:32;;;;;;;1.23;0.50;;;;;;;23.71;67.46;99196.72;5012930;28;20042;-70
2022/06/28 07:48:58;;;;;;;2.28;1.00;;;;;;;24.04;67.45;99203.53;5015557;28;20021;-67
2022/06/28 07:54:07;;;;;;;1.65;0.70;;;;;;;29.39;48.93;99202.81;5011544;28;20061;-66
2022/06/28 07:56:33;;;;;;;0.95;0.60;;;;;;;31.91;42.60;99190.38;5013302;28;20041;-68
2022/06/28 07:58:59;;;;;;;2.85;0.50;;;;;;;32.87;40.25;99199.06;5014258;28;20049;-70
2022/06/28 08:01:24;;;;;;;4.68;0.60;;;;;;;33.10;39.29;99193.94;5015975;28;20472;-67
2022/06/28 08:03:49;;;;;;;1.85;0.50;;;;;;;33.16;38.12;99198.97;5012458;28;20113;-70
2022/06/28 08:06:15;;;;;;;1.88;0.75;;;;;;;34.30;36.51;99204.16;5013476;28;20029;-66
2022/06/28 08:08:40;;;;;;;0.95;0.70;;;;;;;34.96;34.47;99194.56;5009424;28;20117;-68
2022/06/28 08:11:06;;;;;;;2.33;0.45;;;;;;;35.26;34.46;99209.09;5014664;28;20079;-70
2022/06/28 08:13:31;;;;;;;4.45;4.05;;;;;;;35.52;34.26;99202.97;5009180;28;20105;-68
2022/06/28 08:15:58;;;;;;;0.80;0.80;;;;;;;35.92;33.06;99195.59;5035458;22;20046;-75
2022/06/28 08:18:23;;;;;;;3.22;0.55;;;;;;;35.73;33.57;99187.88;5032287;28;20021;-76
2022/06/28 08:20:50;;;;;;;0.50;0.40;;;;;;;36.05;32.16;99183.03;5030822;28;20513;-75
2022/06/28 08:23:15;;;;;;;0.30;0.30;;;;;;;36.01;32.10;99179.34;5022009;28;20130;-72
2022/06/28 08:25:42;;;;;;;1.00;0.60;;;;;;;36.72;30.99;99188.69;5030671;28;20108;-72
2022/06/28 08:28:08;;;;;;;0.65;0.50;;;;;;;36.82;30.29;99190.09;5013646;28;20018;-74
2022/06/28 08:30:33;;;;;;;2.92;0.40;;;;;;;36.65;30.84;99185.69;5014009;28;20376;-75
2022/06/28 08:32:59;;;;;;;1.95;1.20;;;;;;;37.07;29.98;99179.38;5013321;28;20099;-75
2022/06/28 08:35:24;;;;;;;2.35;0.40;;;;;;;36.38;29.93;99171.38;5012082;28;20024;-75
2022/06/28 08:37:50;;;;;;;1.27;0.20;;;;;;;35.62;29.57;99161.44;5008862;28;20029;-75
2022/06/28 08:40:15;;;;;;;2.15;0.40;;;;;;;36.61;30.31;99160.25;5013790;28;20029;-74
2022/06/28 08:42:47;;;;;;;1.27;0.47;;;;;;;37.72;29.04;99162.47;5017145;28;20474;-74
2022/06/28 08:45:13;;;;;;;0.80;0.30;;;;;;;37.18;27.25;99166.31;5011911;28;20075;-77
2022/06/28 08:47:39;;;;;;;3.10;0.45;;;;;;;37.22;28.84;99160.72;5011553;28;20411;-75
2022/06/28 08:50:15;;;;;;;2.33;0.82;;;;;;;38.13;27.99;99159.94;5010865;28;20028;-67
2022/06/28 08:52:42;;;;;;;1.15;0.52;;;;;;;35.13;29.85;99140.00;5006941;28;20030;-67
2022/06/28 08:55:08;;;;;;;1.35;0.40;;;;;;;35.87;29.74;99164.88;5013629;28;20022;-67
2022/06/28 08:57:35;;;;;;;2.15;0.50;;;;;;;35.50;30.78;99145.41;5014857;28;20462;-68
2022/06/28 09:00:09;;;;;;;0.80;0.38;;;;;;;35.12;27.97;99155.25;5019411;28;20507;-71
2022/06/28 09:02:34;;;;;;;0.77;0.50;;;;;;;35.01;29.07;99149.31;5016235;28;20022;-69
2022/06/28 09:05:01;;;;;;;0.65;0.30;;;;;;;35.74;28.45;99119.94;5013328;28;20044;-73
2022/06/28 09:07:29;;;;;;;0.43;0.30;;;;;;;36.53;28.17;99118.19;5013928;28;20064;-74
2022/06/28 09:09:55;;;;;;;2.28;0.70;;;;;;;36.15;27.50;99109.28;5014697;28;20088;-75
2022/06/28 09:12:22;;;;;;;2.30;0.32;;;;;;;35.97;27.49;99130.53;5013981;28;20021;-77
2022/06/28 09:14:48;;;;;;;2.13;0.50;;;;;;;36.64;26.83;99131.31;5012890;28;20033;-72
2022/06/28 09:17:18;;;;;;;6.43;0.60;;;;;;;37.66;25.33;99130.09;5007747;28;20026;-72
2022/06/28 09:19:44;;;;;;;3.28;0.40;;;;;;;37.15;25.16;99123.91;5010136;28;20322;-72
2022/06/28 09:22:09;;;;;;;0.65;0.30;;;;;;;36.89;25.69;99125.41;5011212;28;20072;-72
2022/06/28 09:24:35;;;;;;;1.00;0.40;;;;;;;37.55;24.95;99120.66;5017484;28;20578;-72
2022/06/28 09:27:04;;;;;;;1.20;0.40;;;;;;;37.69;24.10;99129.34;5011863;28;20041;-72
2022/06/28 09:29:44;;;;;;;1.08;0.40;;;;;;;38.01;23.59;99131.09;5003623;28;20562;-72
2022/06/28 09:32:10;;;;;;;0.93;0.40;;;;;;;37.47;24.94;99122.50;4998540;28;20034;-72
2022/06/28 09:34:40;;;;;;;2.53;0.40;;;;;;;36.24;27.65;99114.72;5001742;28;20056;-72
2022/06/28 09:37:06;;;;;;;1.15;0.30;;;;;;;35.25;29.03;99108.19;5006379;28;20398;-72
2022/06/28 09:39:31;;;;;;;0.88;0.57;;;;;;;36.30;28.03;99118.88;5005607;28;20026;-72
2022/06/28 09:41:57;;;;;;;0.73;0.40;;;;;;;36.80;27.48;99111.50;5006614;28;20048;-72
2022/06/28 09:44:28;;;;;;;1.48;0.40;;;;;;;37.01;28.27;99127.25;5007056;28;20598;-72
2022/06/28 09:46:57;;;;;;;3.08;0.30;;;;;;;35.28;28.28;99127.16;5003291;28;20538;-72
2022/06/28 09:49:28;;;;;;;1.60;0.40;;;;;;;36.48;27.65;99132.56;5002123;28;20037;-72
2022/06/28 09:51:56;;;;;;;1.02;0.40;;;;;;;35.17;28.84;99131.69;5005508;28;20030;-72
2022/06/28 09:54:25;;;;;;;2.53;0.40;;;;;;;35.14;28.94;99138.03;5008866;28;20101;-73
2022/06/28 09:56:55;;;;;;;1.20;0.50;;;;;;;36.56;28.40;99138.00;5012813;28;20053;-73
2022/06/28 09:59:27;;;;;;;2.22;0.40;;;;;;;36.49;27.96;99129.34;5008416;28;20537;-78
2022/06/28 10:01:55;;;;;;;2.47;0.25;;;;;;;37.26;27.87;99127.75;5024856;28;20120;-74
2022/06/28 10:04:22;;;;;;;1.90;0.57;;;;;;;37.08;27.52;99121.78;5012174;28;20447;-72
2022/06/28 10:06:47;;;;;;;5.25;0.60;;;;;;;37.85;26.70;99114.28;5011912;28;20109;-73
2022/06/28 10:09:14;;;;;;;1.48;0.40;;;;;;;38.40;26.49;99109.06;5015456;28;20103;-77
2022/06/28 10:17:41;;;;;;;2.00;0.50;;;;;;;39.52;25.49;99119.72;5005924;28;20097;-72
2022/06/28 10:20:08;;;;;;;;;;;;;;;37.23;27.78;99108.72;5012427;28;20064;-72
2022/06/28 10:22:34;;;;;;;1.67;0.43;;;;;;;36.77;27.83;99095.34;5010756;28;19913;-75
2022/06/28 10:25:01;;;;;;;0.90;0.43;;;;;;;38.61;24.39;99087.97;5014294;28;20386;-77
2022/06/28 10:27:28;;;;;;;1.37;0.30;;;;;;;38.42;26.40;99095.38;5006925;28;20284;-79
2022/06/28 10:30:09;;;;;;;0.77;0.40;;;;;;;36.71;28.32;99091.19;5010736;28;20033;-77
2022/06/28 10:32:44;;;;;;;1.75;0.40;;;;;;;38.64;24.69;99073.03;5008807;28;20029;-77
2022/06/28 10:35:10;;;;;;;1.13;0.60;;;;;;;35.01;28.96;99070.56;5017661;28;20071;-77
2022/06/28 10:37:35;;;;;;;1.23;0.40;;;;;;;35.74;28.48;99066.47;5008725;28;20745;-77
2022/06/28 10:40:22;;;;;;;1.67;0.50;;;;;;;35.59;28.91;99081.38;5009522;28;20034;-74
2022/06/28 10:42:49;;;;;;;2.75;0.40;;;;;;;36.03;28.15;99071.97;5009914;28;20025;-74
2022/06/28 10:45:14;;;;;;;0.45;0.30;;;;;;;36.24;28.01;99060.38;5011890;28;20033;-76
2022/06/28 10:48:09;;;;;;;1.85;0.52;;;;;;;36.47;27.48;99074.53;5007150;28;20041;-76
2022/06/28 10:50:56;;;;;;;2.33;0.35;;;;;;;36.80;27.85;99065.59;5009270;28;20013;-83
2022/06/28 10:53:22;;;;;;;1.55;0.30;;;;;;;35.05;28.92;99065.84;5011597;28;20114;-75
2022/06/28 10:56:12;;;;;;;0.40;0.30;;;;;;;35.72;29.81;99068.00;5010073;28;20022;-77
2022/06/28 10:58:58;;;;;;;0.73;0.40;;;;;;;35.86;28.07;99065.53;5004543;28;20037;-77
2022/06/28 11:01:44;;;;;;;0.65;0.38;;;;;;;37.88;26.83;99049.34;5008664;28;20022;-72
2022/06/28 11:04:21;;;;;;;0.73;0.40;;;;;;;37.08;28.36;99051.25;5013450;28;20475;-79
2022/06/28 11:06:53;;;;;;;0.73;0.45;;;;;;;37.11;27.27;99046.88;5018191;28;20032;-73
2022/06/28 11:09:44;;;;;;;0.52;0.30;;;;;;;34.53;31.25;99035.84;5008003;28;20028;-76
2022/06/28 11:12:12;;;;;;;2.95;0.50;;;;;;;34.10;31.01;99037.41;5007453;28;20037;-74
2022/06/28 11:14:55;;;;;;;0.40;0.40;;;;;;;34.20;31.49;99014.47;5010616;28;20041;-76
2022/06/28 11:17:28;;;;;;;2.10;0.45;;;;;;;34.12;31.14;99009.00;5012581;28;20032;-70
2022/06/28 11:20:19;;;;;;;0.65;0.50;;;;;;;34.17;30.36;99005.94;5010950;28;20025;-70
2022/06/28 11:22:47;;;;;;;1.90;0.90;;;;;;;33.38;31.23;99009.84;5013228;28;20029;-75
2022/06/28 11:25:23;;;;;;;3.47;0.50;;;;;;;33.54;32.36;98995.97;5013734;28;20036;-75
2022/06/28 11:27:54;;;;;;;1.35;0.50;;;;;;;34.60;29.11;98982.72;5010035;28;20065;-74
2022/06/28 11:30:23;;;;;;;1.15;0.50;;;;;;;34.83;29.73;98980.13;5008406;28;20030;-72
2022/06/28 11:32:50;;;;;;;0.90;0.40;;;;;;;34.84;29.97;98983.75;5010389;28;20026;-72
2022/06/28 11:35:19;;;;;;;0.60;0.40;;;;;;;35.20;29.90;98979.06;5010485;28;20036;-72
2022/06/28 11:37:53;;;;;;;1.05;0.40;;;;;;;34.43;31.32;98974.59;5007418;28;20061;-72
2022/06/28 11:40:42;;;;;;;1.77;0.30;;;;;;;34.07;30.54;98972.75;5005735;28;20029;-71
2022/06/28 11:43:09;;;;;;;2.67;0.35;;;;;;;33.79;32.17;98974.28;5009453;28;20030;-71